aviador You're here:

KANK Decoded Metar

in
Report Time2018-06-21 12:15:00
UTC Time2018-06-21 12:23:49
Flight Rules vfr VFR
Wind270° at 04 kt
W.Decomp.*RWY 24: 3.5 kt HW 2.0 kt RCW
W.Rank270° ranks 4
Current wind is below 270° avg. (9.2)
Visibility9999 m
Phenomena:N/A
Clouds:N/A
Expected CloudBase > 1,600 ft AGL from Temp-Dew spread
CeilingNone
Temp09°C
Dew Point05°C (76% RH)
AAT6.4°C
QNH1030 hPa
Raw Report
KANK 211215Z AUTO 27004KT 10SM CLR 09/05 A3043 RMK AO1
T00900045=

Extra information for KANK:More info

Social comments